createdAt,value
2018-08-03T00:01:39.217Z,99.90
2018-08-03T00:04:08.296Z,99.90
2018-08-03T00:06:37.395Z,99.90
2018-08-03T00:09:08.625Z,99.90
2018-08-03T00:11:38.458Z,99.90
2018-08-03T00:14:07.665Z,99.90
2018-08-03T00:16:36.759Z,99.90
2018-08-03T00:19:05.818Z,99.90
2018-08-03T00:21:34.873Z,99.90
2018-08-03T00:24:04.352Z,99.90
2018-08-03T00:26:33.813Z,99.90
2018-08-03T00:29:02.873Z,99.90
2018-08-03T00:31:31.952Z,99.90
2018-08-03T00:34:00.969Z,99.90
2018-08-03T00:36:29.968Z,99.90
2018-08-03T00:38:59.166Z,99.90
2018-08-03T00:41:28.367Z,99.90
2018-08-03T00:43:57.469Z,99.90
2018-08-03T00:46:26.569Z,99.90
2018-08-03T00:48:55.768Z,99.90
2018-08-03T00:51:25.992Z,99.90
2018-08-03T00:53:55.077Z,99.90
2018-08-03T00:56:24.190Z,99.90
2018-08-03T00:58:53.186Z,99.90
2018-08-03T01:01:22.289Z,99.90
2018-08-03T01:03:51.239Z,99.90
2018-08-03T01:06:20.291Z,99.90
2018-08-03T01:08:49.315Z,99.90
2018-08-03T01:11:18.385Z,99.90
2018-08-03T01:13:48.096Z,99.90
2018-08-03T01:16:17.105Z,99.90
2018-08-03T01:18:46.193Z,99.90
2018-08-03T01:21:15.287Z,99.90
2018-08-03T01:23:44.488Z,99.90
2018-08-03T01:26:13.483Z,99.90
2018-08-03T01:28:42.583Z,99.90
2018-08-03T01:31:11.681Z,99.90
2018-08-03T01:33:40.783Z,99.90
2018-08-03T01:36:09.725Z,99.90
2018-08-03T01:38:38.777Z,99.90
2018-08-03T01:41:07.980Z,99.90
2018-08-03T01:43:37.128Z,99.90
2018-08-03T01:46:06.175Z,99.90
2018-08-03T01:48:35.172Z,99.90
2018-08-03T01:51:04.221Z,99.90
2018-08-03T01:53:33.274Z,99.90
2018-08-03T01:56:02.293Z,99.90
2018-08-03T01:58:31.267Z,99.90
2018-08-03T02:01:00.273Z,99.90
2018-08-03T02:03:29.472Z,99.90
2018-08-03T02:05:58.584Z,99.90
2018-08-03T02:08:27.763Z,99.90
2018-08-03T02:10:56.969Z,99.90
2018-08-03T02:13:26.168Z,99.90
2018-08-03T02:15:55.372Z,99.90
2018-08-03T02:18:24.493Z,99.90
2018-08-03T02:20:53.623Z,99.90
2018-08-03T02:23:22.769Z,99.90
2018-08-03T02:25:51.846Z,99.90
2018-08-03T02:30:49.388Z,99.90
2018-08-03T02:33:18.556Z,99.90
2018-08-03T02:35:48.158Z,99.90
2018-08-03T02:38:17.263Z,99.90
2018-08-03T02:40:46.365Z,99.90
2018-08-03T02:43:15.421Z,99.90
2018-08-03T02:45:44.413Z,99.90
2018-08-03T02:48:13.472Z,99.90
2018-08-03T02:50:42.559Z,99.90
2018-08-03T02:53:11.544Z,99.90
2018-08-03T02:55:40.673Z,99.90
2018-08-03T02:58:10.057Z,99.90
2018-08-03T03:00:39.043Z,99.90
2018-08-03T03:03:08.975Z,99.90
2018-08-03T03:05:38.081Z,99.90
2018-08-03T03:08:07.025Z,99.90
2018-08-03T03:10:36.065Z,99.90
2018-08-03T03:13:05.268Z,99.90
2018-08-03T03:15:34.366Z,99.90
2018-08-03T03:18:04.247Z,99.90
2018-08-03T03:20:33.596Z,99.90
2018-08-03T03:23:02.738Z,99.90
2018-08-03T03:25:32.584Z,99.90
2018-08-03T03:28:01.706Z,99.90
2018-08-03T03:30:30.728Z,99.90
2018-08-03T03:32:59.751Z,99.90
2018-08-03T03:35:28.907Z,99.90
2018-08-03T03:37:58.008Z,99.90
2018-08-03T03:40:27.121Z,99.90
2018-08-03T03:42:56.300Z,99.90
2018-08-03T03:45:25.472Z,99.90
2018-08-03T03:47:54.501Z,99.90
2018-08-03T03:50:23.498Z,99.90
2018-08-03T03:52:52.494Z,99.90
2018-08-03T03:55:21.593Z,99.90
2018-08-03T03:57:50.781Z,99.90
2018-08-03T04:00:19.896Z,99.90
2018-08-03T04:02:49.098Z,99.90
2018-08-03T04:05:18.085Z,99.90
2018-08-03T04:07:47.195Z,99.90
2018-08-03T04:10:16.291Z,99.90
2018-08-03T04:12:45.421Z,99.90
2018-08-03T04:15:15.420Z,99.90
2018-08-03T04:17:44.423Z,99.90
2018-08-03T04:20:13.462Z,99.90
2018-08-03T04:22:44.022Z,99.90
2018-08-03T04:25:13.344Z,99.90
2018-08-03T04:27:42.366Z,99.90
2018-08-03T04:30:11.546Z,99.90
2018-08-03T04:32:40.610Z,99.90
2018-08-03T04:37:38.331Z,99.90
2018-08-03T04:40:07.423Z,99.90
2018-08-03T04:42:36.566Z,99.90
2018-08-03T04:45:05.831Z,99.90
2018-08-03T04:47:35.034Z,99.90
2018-08-03T04:50:04.293Z,99.90
2018-08-03T04:52:33.437Z,99.90
2018-08-03T04:55:02.440Z,99.90
2018-08-03T04:57:31.674Z,99.90
2018-08-03T05:00:00.941Z,99.90
2018-08-03T05:02:30.065Z,99.90
2018-08-03T05:04:59.144Z,99.90
2018-08-03T05:07:28.459Z,99.90
2018-08-03T05:09:58.149Z,99.90
2018-08-03T05:12:27.356Z,99.90
2018-08-03T05:14:56.353Z,99.90
2018-08-03T05:17:25.368Z,99.90
2018-08-03T05:19:54.449Z,99.90
2018-08-03T05:22:23.619Z,99.90
2018-08-03T05:24:53.159Z,99.90
2018-08-03T05:27:22.154Z,99.90
2018-08-03T05:29:51.119Z,99.90
2018-08-03T05:32:20.266Z,99.90
2018-08-03T05:34:49.209Z,99.90
2018-08-03T05:39:46.840Z,99.90
2018-08-03T05:42:16.217Z,99.90
2018-08-03T05:44:45.335Z,99.90
2018-08-03T05:47:14.543Z,99.90
2018-08-03T05:49:43.515Z,99.90
2018-08-03T05:54:41.216Z,99.90
2018-08-03T05:57:10.203Z,99.90
2018-08-03T05:59:39.232Z,99.90
2018-08-03T06:02:08.729Z,99.90
2018-08-03T06:04:37.813Z,99.90
2018-08-03T06:07:07.037Z,99.90
2018-08-03T06:09:36.066Z,99.90
2018-08-03T06:12:05.409Z,99.90
2018-08-03T06:14:34.346Z,99.90
2018-08-03T06:17:03.497Z,99.90
2018-08-03T06:19:32.687Z,99.90
2018-08-03T06:22:01.679Z,99.90
2018-08-03T06:24:31.757Z,99.90
2018-08-03T06:27:00.837Z,99.90
2018-08-03T06:29:30.493Z,99.90
2018-08-03T06:31:59.848Z,99.90
2018-08-03T06:34:28.878Z,99.90
2018-08-03T06:36:57.873Z,99.90
2018-08-03T06:39:26.957Z,99.80
2018-08-03T06:41:55.958Z,99.30
2018-08-03T06:44:24.959Z,99.70
2018-08-03T06:46:53.956Z,98.70
2018-08-03T06:49:23.056Z,98.70
2018-08-03T06:51:52.169Z,99.10
2018-08-03T06:54:21.352Z,99.30
2018-08-03T06:56:50.442Z,97.10
2018-08-03T06:59:19.686Z,96.50
2018-08-03T07:01:48.653Z,96.40
2018-08-03T07:04:17.735Z,95.80
2018-08-03T07:06:46.846Z,94.70
2018-08-03T07:09:16.350Z,93.90
2018-08-03T07:11:45.299Z,91.80
2018-08-03T07:14:14.273Z,87.50
2018-08-03T07:16:43.350Z,83.40
2018-08-03T07:19:12.446Z,75.20
2018-08-03T07:21:41.545Z,71.30
2018-08-03T07:24:10.549Z,67.60
2018-08-03T07:26:39.913Z,68.90
2018-08-03T07:29:09.048Z,67.60
2018-08-03T07:31:38.205Z,63.20
2018-08-03T07:34:07.964Z,60.90
2018-08-03T07:36:37.062Z,58.10
2018-08-03T07:39:08.050Z,56.80
2018-08-03T07:41:37.206Z,56.50
2018-08-03T07:44:06.321Z,57.30
2018-08-03T07:46:35.805Z,58.30
2018-08-03T07:49:04.940Z,55.70
2018-08-03T07:51:34.005Z,53.70
2018-08-03T07:54:03.116Z,53.90
2018-08-03T07:56:32.332Z,52.60
2018-08-03T07:59:01.513Z,50.80
2018-08-03T08:01:31.325Z,53.60
2018-08-03T08:04:00.331Z,51.90
2018-08-03T08:06:29.432Z,50.70
2018-08-03T08:08:58.503Z,50.80
2018-08-03T08:11:27.492Z,47.20
2018-08-03T08:13:56.524Z,45.90
2018-08-03T08:16:25.620Z,44.90
2018-08-03T08:18:54.724Z,44.50
2018-08-03T08:21:23.714Z,44.50
2018-08-03T08:23:52.752Z,44.10
2018-08-03T08:26:21.710Z,43.00
2018-08-03T08:28:51.442Z,43.10
2018-08-03T08:31:21.492Z,42.90
2018-08-03T08:33:50.937Z,43.80
2018-08-03T08:36:20.512Z,43.70
2018-08-03T08:38:49.495Z,43.30
2018-08-03T08:41:18.671Z,42.50
2018-08-03T08:46:16.551Z,41.80
2018-08-03T08:48:45.545Z,41.20
2018-08-03T08:51:14.649Z,40.40
2018-08-03T08:53:43.756Z,41.00
2018-08-03T08:56:13.363Z,40.10
2018-08-03T08:58:42.463Z,39.00
2018-08-03T09:01:11.467Z,38.50
2018-08-03T09:03:40.549Z,38.00
2018-08-03T09:06:09.647Z,37.70
2018-08-03T09:08:38.649Z,37.70
2018-08-03T09:11:08.615Z,37.30
2018-08-03T09:13:37.770Z,36.50
2018-08-03T09:16:07.216Z,36.60
2018-08-03T09:18:41.281Z,37.10
2018-08-03T09:23:40.408Z,36.00
2018-08-03T09:26:09.507Z,36.10
2018-08-03T09:28:38.706Z,35.70
2018-08-03T09:31:07.884Z,37.90
2018-08-03T09:33:36.910Z,35.20
2018-08-03T09:36:05.992Z,33.80
2018-08-03T09:38:35.103Z,33.70
2018-08-03T09:41:04.203Z,35.30
2018-08-03T09:43:34.119Z,34.60
2018-08-03T09:46:03.320Z,35.30
2018-08-03T09:48:32.435Z,36.30
2018-08-03T09:51:01.769Z,35.60
2018-08-03T09:53:30.826Z,34.90
2018-08-03T09:55:59.950Z,35.30
2018-08-03T09:58:29.024Z,36.20
2018-08-03T10:01:02.252Z,36.40
2018-08-03T10:03:31.301Z,35.80
2018-08-03T10:06:00.411Z,37.00
2018-08-03T10:08:29.458Z,35.70
2018-08-03T10:10:58.512Z,35.40
2018-08-03T10:13:27.459Z,36.60
2018-08-03T10:15:56.612Z,34.90
2018-08-03T10:18:25.602Z,33.80
2018-08-03T10:20:55.320Z,34.40
2018-08-03T10:23:24.313Z,35.50
2018-08-03T10:25:53.437Z,35.30
2018-08-03T10:28:22.618Z,34.50
2018-08-03T10:30:52.227Z,34.20
2018-08-03T10:33:21.330Z,35.20
2018-08-03T10:35:50.484Z,34.50
2018-08-03T10:38:19.552Z,34.90
2018-08-03T10:40:48.548Z,35.90
2018-08-03T10:43:17.626Z,35.70
2018-08-03T10:45:46.626Z,35.40
2018-08-03T10:48:15.720Z,34.10
2018-08-03T10:50:44.715Z,34.30
2018-08-03T10:53:13.814Z,34.40
2018-08-03T10:55:43.018Z,37.60
2018-08-03T10:58:12.244Z,37.00
2018-08-03T11:00:41.313Z,34.00
2018-08-03T11:03:10.524Z,34.30
2018-08-03T11:05:39.608Z,32.60
2018-08-03T11:08:08.619Z,34.50
2018-08-03T11:10:37.748Z,33.50
2018-08-03T11:13:07.039Z,32.90
2018-08-03T11:15:36.120Z,33.60
2018-08-03T11:18:05.229Z,33.20
2018-08-03T11:20:34.313Z,36.60
2018-08-03T11:23:03.516Z,37.20
2018-08-03T11:25:32.824Z,35.30
2018-08-03T11:28:01.919Z,34.40
2018-08-03T11:30:30.956Z,34.20
2018-08-03T11:33:00.017Z,33.00
2018-08-03T11:35:29.645Z,33.00
2018-08-03T11:37:58.725Z,32.80
2018-08-03T11:40:27.731Z,32.80
2018-08-03T11:42:56.719Z,33.20
2018-08-03T11:45:25.921Z,35.40
2018-08-03T11:47:55.020Z,35.00
2018-08-03T11:50:24.067Z,34.80
2018-08-03T11:52:54.034Z,34.40
2018-08-03T11:55:23.164Z,34.20
2018-08-03T11:57:52.746Z,35.70
2018-08-03T12:00:21.996Z,35.20
2018-08-03T12:02:51.034Z,35.80
2018-08-03T12:05:20.154Z,35.80
2018-08-03T12:07:49.379Z,35.80
2018-08-03T12:10:18.480Z,36.30
2018-08-03T12:12:47.549Z,37.40
2018-08-03T12:15:16.952Z,36.70
2018-08-03T12:17:46.115Z,36.40
2018-08-03T12:20:15.272Z,36.00
2018-08-03T12:22:45.806Z,37.00
2018-08-03T12:25:15.527Z,38.30
2018-08-03T12:27:44.765Z,37.90
2018-08-03T12:30:13.803Z,37.50
2018-08-03T12:32:43.326Z,37.90
2018-08-03T12:35:12.717Z,38.20
2018-08-03T12:37:42.057Z,37.80
2018-08-03T12:40:12.013Z,37.80
2018-08-03T12:42:41.348Z,38.70
2018-08-03T12:45:10.710Z,38.80
2018-08-03T12:47:40.581Z,38.80
2018-08-03T12:50:09.869Z,38.60
2018-08-03T12:52:38.905Z,39.10
2018-08-03T12:55:08.070Z,38.70
2018-08-03T12:57:37.168Z,41.20
2018-08-03T13:00:07.444Z,42.30
2018-08-03T13:02:37.185Z,42.40
2018-08-03T13:05:06.649Z,42.90
2018-08-03T13:07:35.971Z,42.60
2018-08-03T13:10:05.026Z,40.40
2018-08-03T13:12:34.220Z,40.10
2018-08-03T13:15:03.295Z,39.20
2018-08-03T13:17:32.432Z,39.70
2018-08-03T13:20:01.414Z,38.50
2018-08-03T13:22:30.491Z,38.10
2018-08-03T13:27:28.375Z,37.70
2018-08-03T13:29:57.434Z,37.60
2018-08-03T13:32:26.603Z,38.00
2018-08-03T13:34:55.703Z,38.00
2018-08-03T13:37:24.715Z,38.10
2018-08-03T13:39:54.009Z,38.80
2018-08-03T13:42:23.223Z,38.30
2018-08-03T13:44:52.418Z,40.20
2018-08-03T13:47:21.465Z,42.30
2018-08-03T13:49:50.811Z,42.80
2018-08-03T13:52:19.809Z,42.70
2018-08-03T13:54:49.011Z,42.60
2018-08-03T13:57:18.331Z,43.00
2018-08-03T13:59:47.406Z,44.10
2018-08-03T14:02:22.640Z,42.60
2018-08-03T14:04:52.023Z,42.90
2018-08-03T14:07:21.055Z,43.00
2018-08-03T14:09:50.039Z,43.00
2018-08-03T14:12:19.242Z,41.80
2018-08-03T14:14:48.378Z,42.20
2018-08-03T14:17:17.454Z,42.40
2018-08-03T14:19:47.076Z,41.10
2018-08-03T14:22:16.216Z,39.30
2018-08-03T14:24:45.642Z,39.80
2018-08-03T14:27:16.002Z,39.00
2018-08-03T14:29:45.107Z,39.10
2018-08-03T14:32:14.504Z,38.30
2018-08-03T14:34:43.809Z,38.10
2018-08-03T14:37:13.057Z,38.30
2018-08-03T14:39:42.577Z,38.40
2018-08-03T14:42:11.637Z,37.90
2018-08-03T14:44:40.602Z,37.70
2018-08-03T14:47:09.719Z,37.40
2018-08-03T14:49:38.716Z,37.20
2018-08-03T14:52:07.828Z,37.70
2018-08-03T14:54:36.907Z,37.80
2018-08-03T14:57:06.115Z,37.00
2018-08-03T14:59:35.538Z,38.30
2018-08-03T15:02:04.719Z,39.40
2018-08-03T15:04:33.923Z,39.80
2018-08-03T15:07:03.148Z,40.10
2018-08-03T15:09:32.147Z,39.80
2018-08-03T15:12:01.334Z,40.50
2018-08-03T15:14:30.523Z,40.10
2018-08-03T15:16:59.622Z,40.30
2018-08-03T15:19:28.621Z,39.10
2018-08-03T15:21:57.720Z,37.80
2018-08-03T15:24:26.924Z,38.10
2018-08-03T15:26:56.023Z,38.80
2018-08-03T15:29:25.280Z,39.10
2018-08-03T15:31:54.375Z,39.40
2018-08-03T15:34:23.418Z,39.70
2018-08-03T15:36:52.499Z,40.20
2018-08-03T15:39:22.131Z,40.70
2018-08-03T15:41:51.240Z,41.00
2018-08-03T15:44:20.252Z,41.10
2018-08-03T15:46:49.265Z,41.00
2018-08-03T15:49:18.325Z,41.10
2018-08-03T15:51:47.423Z,42.70
2018-08-03T15:54:16.480Z,43.20
2018-08-03T15:56:45.518Z,44.00
2018-08-03T15:59:14.555Z,45.40
2018-08-03T16:01:43.816Z,45.10
2018-08-03T16:04:13.027Z,45.20
2018-08-03T16:06:42.193Z,45.90
2018-08-03T16:09:11.768Z,46.60
2018-08-03T16:11:41.325Z,46.80
2018-08-03T16:14:10.951Z,46.60
2018-08-03T16:16:39.965Z,47.30
2018-08-03T16:19:09.073Z,47.50
2018-08-03T16:21:38.145Z,47.80
2018-08-03T16:24:07.195Z,48.30
2018-08-03T16:26:36.243Z,48.60
2018-08-03T16:29:05.548Z,48.60
2018-08-03T16:31:34.642Z,48.80
2018-08-03T16:34:03.646Z,48.80
2018-08-03T16:36:32.746Z,48.90
2018-08-03T16:39:02.110Z,49.00
2018-08-03T16:41:31.151Z,49.20
2018-08-03T16:44:01.120Z,49.10
2018-08-03T16:46:31.104Z,49.30
2018-08-03T16:49:00.288Z,49.90
2018-08-03T16:51:29.488Z,49.40
2018-08-03T16:53:58.793Z,49.10
2018-08-03T16:56:27.865Z,49.40
2018-08-03T16:58:56.992Z,49.30
2018-08-03T17:01:26.095Z,49.50
2018-08-03T17:03:55.509Z,49.30
2018-08-03T17:06:25.211Z,49.40
2018-08-03T17:08:54.525Z,50.10
2018-08-03T17:11:23.611Z,50.20
2018-08-03T17:13:52.918Z,50.30
2018-08-03T17:16:22.107Z,50.70
2018-08-03T17:18:51.089Z,50.40
2018-08-03T17:23:48.808Z,51.00
2018-08-03T17:26:18.004Z,50.90
2018-08-03T17:28:47.230Z,51.20
2018-08-03T17:31:16.324Z,51.40
2018-08-03T17:33:45.401Z,51.50
2018-08-03T17:36:14.447Z,51.80
2018-08-03T17:38:43.502Z,51.70
2018-08-03T17:41:12.667Z,52.10
2018-08-03T17:43:42.725Z,52.00
2018-08-03T17:46:11.861Z,51.90
2018-08-03T17:48:41.023Z,52.20
2018-08-03T17:51:10.141Z,52.60
2018-08-03T17:53:39.225Z,52.90
2018-08-03T17:56:08.393Z,53.10
2018-08-03T17:58:38.037Z,53.20
2018-08-03T18:01:07.344Z,53.40
2018-08-03T18:03:36.400Z,53.40
2018-08-03T18:06:05.684Z,53.90
2018-08-03T18:08:35.479Z,53.70
2018-08-03T18:11:05.067Z,54.30
2018-08-03T18:13:34.062Z,54.00
2018-08-03T18:16:03.166Z,54.20
2018-08-03T18:18:32.153Z,54.20
2018-08-03T18:21:01.361Z,54.20
2018-08-03T18:23:30.331Z,54.30
2018-08-03T18:25:59.340Z,55.40
2018-08-03T18:28:28.458Z,54.80
2018-08-03T18:30:58.064Z,55.00
2018-08-03T18:33:27.267Z,55.50
2018-08-03T18:35:56.574Z,55.90
2018-08-03T18:38:25.774Z,56.20
2018-08-03T18:40:54.870Z,56.60
2018-08-03T18:43:23.969Z,56.70
2018-08-03T18:45:53.687Z,57.20
2018-08-03T18:48:22.754Z,57.50
2018-08-03T18:50:52.087Z,57.70
2018-08-03T18:53:21.220Z,58.40
2018-08-03T18:55:50.916Z,58.50
2018-08-03T18:58:20.924Z,59.00
2018-08-03T19:00:50.017Z,59.30
2018-08-03T19:03:19.376Z,59.50
2018-08-03T19:05:48.423Z,59.70
2018-08-03T19:08:17.449Z,59.90
2018-08-03T19:10:46.621Z,60.00
2018-08-03T19:13:16.249Z,61.90
2018-08-03T19:15:45.280Z,62.30
2018-08-03T19:18:14.431Z,63.40
2018-08-03T19:20:43.639Z,63.20
2018-08-03T19:23:12.708Z,63.40
2018-08-03T19:25:41.735Z,63.90
2018-08-03T19:28:10.720Z,64.00
2018-08-03T19:30:39.739Z,64.60
2018-08-03T19:33:09.039Z,65.70
2018-08-03T19:35:38.123Z,65.20
2018-08-03T19:38:07.225Z,65.90
2018-08-03T19:40:36.322Z,66.00
2018-08-03T19:43:05.642Z,66.30
2018-08-03T19:45:34.712Z,67.80
2018-08-03T19:48:05.054Z,68.80
2018-08-03T19:50:34.108Z,69.70
2018-08-03T19:53:03.355Z,70.10
2018-08-03T19:55:32.660Z,70.00
2018-08-03T19:58:01.863Z,70.80
2018-08-03T20:00:30.975Z,71.50
2018-08-03T20:03:00.057Z,75.00
2018-08-03T20:05:29.160Z,76.40
2018-08-03T20:07:58.917Z,75.90
2018-08-03T20:10:28.064Z,74.10
2018-08-03T20:12:58.074Z,74.40
2018-08-03T20:15:27.219Z,74.00
2018-08-03T20:17:56.400Z,73.90
2018-08-03T20:20:25.596Z,73.60
2018-08-03T20:22:54.702Z,74.60
2018-08-03T20:25:23.806Z,73.90
2018-08-03T20:27:52.991Z,74.00
2018-08-03T20:30:22.985Z,74.20
2018-08-03T20:32:52.116Z,74.20
2018-08-03T20:35:21.316Z,74.40
2018-08-03T20:37:50.528Z,75.10
2018-08-03T20:40:19.659Z,75.30
2018-08-03T20:42:48.821Z,75.30
2018-08-03T20:45:18.159Z,75.50
2018-08-03T20:47:47.215Z,76.30
2018-08-03T20:50:16.369Z,76.60
2018-08-03T20:52:45.547Z,76.60
2018-08-03T20:55:14.672Z,77.10
2018-08-03T20:57:43.836Z,77.30
2018-08-03T21:00:13.537Z,77.80
2018-08-03T21:02:42.639Z,78.50
2018-08-03T21:05:11.739Z,79.30
2018-08-03T21:07:40.867Z,79.30
2018-08-03T21:10:10.038Z,80.10
2018-08-03T21:12:39.341Z,80.90
2018-08-03T21:15:09.164Z,81.40
2018-08-03T21:17:38.360Z,81.40
2018-08-03T21:20:08.695Z,82.30
2018-08-03T21:22:38.032Z,82.80
2018-08-03T21:25:07.791Z,83.30
2018-08-03T21:27:37.034Z,83.80
2018-08-03T21:30:08.077Z,84.10
2018-08-03T21:32:37.098Z,84.80
2018-08-03T21:35:06.470Z,85.60
2018-08-03T21:37:35.976Z,86.70
2018-08-03T21:40:05.466Z,87.10
2018-08-03T21:42:35.086Z,88.50
2018-08-03T21:45:04.679Z,89.80
2018-08-03T21:47:33.674Z,90.70
2018-08-03T21:50:02.690Z,91.10
2018-08-03T21:52:32.920Z,91.80
2018-08-03T21:55:02.017Z,92.50
2018-08-03T21:57:31.040Z,93.10
2018-08-03T22:00:00.080Z,94.00
2018-08-03T22:02:29.112Z,94.30
2018-08-03T22:04:58.355Z,94.80
2018-08-03T22:07:27.407Z,95.40
2018-08-03T22:09:56.509Z,95.70
2018-08-03T22:12:25.625Z,96.50
2018-08-03T22:14:54.706Z,96.80
2018-08-03T22:17:24.010Z,97.00
2018-08-03T22:19:53.110Z,97.40
2018-08-03T22:22:22.320Z,97.30
2018-08-03T22:24:51.613Z,97.60
2018-08-03T22:27:20.792Z,97.70
2018-08-03T22:29:49.782Z,98.00
2018-08-03T22:32:18.838Z,98.00
2018-08-03T22:34:48.013Z,98.90
2018-08-03T22:37:17.023Z,99.20
2018-08-03T22:39:46.316Z,99.90
2018-08-03T22:42:15.863Z,99.90
2018-08-03T22:44:45.029Z,99.90
2018-08-03T22:47:14.740Z,99.90
2018-08-03T22:49:43.951Z,99.90
2018-08-03T22:52:14.471Z,99.90
2018-08-03T22:54:43.569Z,99.90
2018-08-03T22:57:13.487Z,99.90
2018-08-03T22:59:44.222Z,99.90
2018-08-03T23:02:13.425Z,99.90
2018-08-03T23:04:42.534Z,99.90
2018-08-03T23:07:11.725Z,99.90
2018-08-03T23:09:40.822Z,99.90
2018-08-03T23:12:10.479Z,99.90
2018-08-03T23:14:39.638Z,99.90
2018-08-03T23:17:08.738Z,99.90
2018-08-03T23:19:38.045Z,99.90
2018-08-03T23:22:07.140Z,99.90
2018-08-03T23:24:36.177Z,99.90
2018-08-03T23:27:05.292Z,99.90
2018-08-03T23:29:34.543Z,99.90
2018-08-03T23:32:03.600Z,99.90
2018-08-03T23:34:32.751Z,99.90
2018-08-03T23:37:01.732Z,99.90
2018-08-03T23:39:30.776Z,99.90
2018-08-03T23:41:59.748Z,99.90
2018-08-03T23:44:28.968Z,99.90
2018-08-03T23:46:58.032Z,99.90
2018-08-03T23:49:27.146Z,99.90
2018-08-03T23:51:56.337Z,99.90
2018-08-03T23:54:25.438Z,99.90
2018-08-03T23:56:55.453Z,99.90
2018-08-03T23:59:24.551Z,99.90
